• Join FlightAware (Why Join?)
  • Login
  • US Flag 
03:15AM EST


 

Airport Tracker/Info


-or-


 

Live Flight TrackerFlight Track Log ✈ EJA574 ✈ 01-Aug-2014 ✈ MYEH / ELH - KBHM

Flight Track Log - Related Links

Times and Time Zones

All times are in EDT time to prevent confusion due to time zone crossing. See the EJA574 flight status page for this flight to view local times or setup timezone preferences in your user account.

Time Position Orientation Groundspeed Altitude Reporting Facility
EDT Latitude Longitude Course Direction KTS MPH feet Rate Location/Type
10:50AM 25.5275 -76.7469 287° West 217 250 6,000  Level Miami Center
10:51AM 25.5444 -76.8250 284° West 250 288 8,900 2,460 Climbing Miami Center
10:52AM 25.5847 -76.8967 302° West 271 312 11,200 2,040 Climbing Miami Center
10:53AM 25.6425 -76.9803 307° West 307 353 13,200 1,860 Climbing Miami Center
10:54AM 25.6964 -77.0636 306° West 328 377 15,100 1,740 Climbing Miami Center
10:55AM 25.6130 -77.2252 287° West  Level FlightAware Approximate
10:55AM 25.7419 -77.1586 298° West 344 396 16,900  Level Miami Center
10:56AM 25.7931 -77.2650 298° West 356 410 18,600 1,620 Climbing Miami Center
10:57AM 25.8417 -77.3625 299° West 357 411 20,300 1,620 Climbing Miami Center
10:58AM 25.8903 -77.4619 299° West 362 417 22,000 1,620 Climbing Miami Center
10:59AM 25.9389 -77.5619 298° West 364 419 23,700 1,560 Climbing Miami Center
11:00AM 25.9875 -77.6633 298° West 367 422 25,300 1,440 Climbing Miami Center
11:01AM 26.0356 -77.7650 298° West 371 427 26,700 1,440 Climbing Miami Center
11:02AM 26.0964 -77.8886 299° West 375 432 28,300 1,380 Climbing Miami Center
11:03AM 26.1458 -77.9953 297° West 383 441 29,600 1,200 Climbing Miami Center
11:04AM 26.1975 -78.1011 299° West 386 444 30,800 1,080 Climbing Miami Center
11:05AM 26.2492 -78.2086 298° West 389 448 31,900 1,020 Climbing Miami Center
11:06AM 26.3011 -78.3164 298° West 390 449 33,000 1,080 Climbing Miami Center
11:07AM 26.3525 -78.4261 298° West 397 457 34,200 1,080 Climbing Miami Center
11:08AM 26.4036 -78.5353 298° West 396 456 35,300 840 Climbing Miami Center
11:09AM 26.4658 -78.6703 297° West 399 459 36,000 480 Climbing Miami Center
11:10AM 26.5236 -78.7936 298° West 438 504 36,300 840 Climbing Miami Center
11:11AM 26.5792 -78.9097 298° West 420 483 37,800 1,260 Climbing Miami Center
11:13AM 26.6319 -79.0192 298° West 404 465 39,000 960 Climbing Miami Center
11:14AM 26.6836 -79.1300 298° West 402 463 39,900 480 Climbing Miami Center
11:15AM 26.7364 -79.2428 298° West 408 470 40,000  Climbing Miami Center
11:16AM 26.7956 -79.3700 298° West 423 487 40,000  Level Miami Center
11:17AM 26.8522 -79.4931 297° West 419 482 40,000  Level Miami Center
11:18AM 26.9086 -79.6144 298° West 419 482 40,000  Level Miami Center
11:19AM 26.9658 -79.7372 298° West 425 489 40,000  Level Miami Center
11:20AM 27.0231 -79.8622 297° West 426 490 40,000  Level Miami Center
11:21AM 27.0733 -79.9725 297° West 418 481 40,000  Level Miami Center
11:22AM 27.1261 -80.0878 297° West 417 480 40,000  Level Miami Center
11:23AM 27.1794 -80.2042 297° West 417 480 40,000  Level Miami Center
11:24AM 27.2317 -80.3208 297° West 417 480 40,000  Level Miami Center
11:25AM 27.2956 -80.4603 297° West 417 480 40,000  Level Miami Center
11:26AM 27.3544 -80.5706 301° West 412 474 40,000  Level Miami Center
11:27AM 27.4344 -80.6608 315° West 408 470 40,000  Level Miami Center
11:28AM 27.5150 -80.7553 314° West 416 479 40,000  Level Miami Center
11:29AM 27.6011 -80.8503 316° Northwest 416 479 40,000  Level Miami Center
11:30AM 27.6819 -80.9428 315° West 416 479 40,000  Level Miami Center
11:31AM 27.7603 -81.0328 315° West 408 470 40,000  Level Miami Center
11:32AM 27.8544 -81.1425 314° West 401 461 40,000  Level Miami Center
11:33AM 27.9372 -81.2369 315° West 402 463 40,000  Level Miami Center
11:34AM 28.0189 -81.3322 314° West 402 463 40,000  Level Miami Center
11:35AM 28.0897 -81.4136 315° West 402 463 40,000  Level Miami Center
11:36AM 28.1706 -81.5064 315° West 402 463 40,000  Level Miami Center
11:37AM 28.2603 -81.6106 314° West 398 458 40,000  Level Jacksonville Center
11:38AM 28.3386 -81.7017 314° West 398 458 40,000  Level Jacksonville Center
11:39AM 28.4164 -81.7928 314° West 398 458 40,000  Level Jacksonville Center
11:40AM 28.4881 -81.8769 314° West 407 468 40,000  Level Jacksonville Center
11:41AM 28.5722 -81.9611 319° Northwest 407 468 40,000  Level Jacksonville Center
11:42AM 28.6689 -82.0431 323° Northwest 401 461 40,000  Level Jacksonville Center
11:43AM 28.7592 -82.1253 321° Northwest 401 461 40,000  Level Jacksonville Center
11:44AM 28.8450 -82.2028 322° Northwest 401 461 40,000  Level Jacksonville Center
11:45AM 28.9311 -82.2853 320° Northwest 401 461 40,000  Level Jacksonville Center
11:46AM 29.0086 -82.3514 323° Northwest 392 451 40,000  Level Jacksonville Center
11:47AM 29.0967 -82.4317 321° Northwest 403 464 40,000  Level Jacksonville Center
11:48AM 29.1844 -82.5119 321° Northwest 403 464 40,000  Level Jacksonville Center
11:49AM 29.2744 -82.5925 322° Northwest 403 464 40,000  Level Jacksonville Center
11:50AM 29.3603 -82.6711 321° Northwest 398 458 40,000  Level Jacksonville Center
11:51AM 29.4458 -82.7494 321° Northwest 398 458 40,000  Level Jacksonville Center
11:52AM 29.5483 -82.8472 320° Northwest 423 487 40,000  Level Jacksonville Center
11:53AM 29.6403 -82.9308 322° Northwest 425 489 40,000  Level Jacksonville Center
11:54AM 29.7047 -83.0383 305° West 425 489 40,000  Level Jacksonville Center
11:55AM 29.7569 -83.1319 303° West 410 472 40,000  Level Jacksonville Center
11:56AM 29.8150 -83.2397 302° West 410 472 40,000  Level Jacksonville Center
11:57AM 29.8836 -83.3669 302° West 410 472 40,000  Level Jacksonville Center
11:58AM 29.9436 -83.4728 303° West 410 472 40,000  Level Jacksonville Center
11:59AM 30.0058 -83.5833 303° West 410 472 40,000  Level Jacksonville Center
12:00PM 30.0656 -83.6894 303° West 410 472 40,000  Level Jacksonville Center
12:01PM 30.1444 -83.7836 314° West 410 472 40,000  Level Jacksonville Center
12:02PM 30.2358 -83.8592 324° Northwest 400 460 40,000  Level Jacksonville Center
12:03PM 30.3250 -83.9322 325° Northwest 400 460 40,000  Level Jacksonville Center
12:04PM 30.4161 -84.0103 324° Northwest 400 460 40,000  Level Jacksonville Center
12:05PM 30.5094 -84.0836 326° Northwest 400 460 40,000  Level Jacksonville Center
12:06PM 30.5922 -84.1572 323° Northwest 400 460 40,000  Level Jacksonville Center
12:07PM 30.6833 -84.2356 324° Northwest 400 460 40,000 -60 Level Jacksonville Center
12:08PM 30.7722 -84.3094 324° Northwest 400 460 39,900 -840 Descending Jacksonville Center
12:09PM 30.8653 -84.3883 324° Northwest 400 460 38,400 -1,620 Descending Jacksonville Center
12:10PM 30.9522 -84.4622 324° Northwest 400 460 36,700 -1,920 Descending Jacksonville Center
12:11PM 31.0369 -84.5317 325° Northwest 395 455 34,600 -2,100 Descending Jacksonville Center
12:12PM 31.1214 -84.6033 324° Northwest 390 449 32,600 -2,040 Descending Jacksonville Center
12:13PM 31.2083 -84.6756 325° Northwest 384 442 30,600 -1,380 Descending Jacksonville Center
12:16PM 31.4183 -84.8589 323° Northwest 415 478 28,000 -780 Descending Atlanta Center
12:17PM 31.5097 -84.9378 324° Northwest 421 484 28,000  Level Atlanta Center
12:18PM 31.6008 -85.0167 324° Northwest 421 484 28,000 -360 Level Atlanta Center
12:19PM 31.6900 -85.0956 323° Northwest 411 473 27,300 -1,260 Descending Atlanta Center
12:20PM 31.7978 -85.1825 326° Northwest 411 473 25,500 -1,680 Descending Atlanta Center
12:21PM 31.8908 -85.2619 324° Northwest 416 479 24,000 -780 Descending Atlanta Center
12:22PM 31.9839 -85.3439 323° Northwest 416 479 24,000 -420 Level Atlanta Center
12:23PM 32.0750 -85.4236 323° Northwest 416 479 23,200 -1,020 Descending Atlanta Center
12:24PM 32.1678 -85.5036 324° Northwest 416 479 22,000 -600 Descending Atlanta Center
12:25PM 32.2589 -85.5836 323° Northwest 416 479 22,000  Level Atlanta Center
12:26PM 32.3517 -85.6642 324° Northwest 416 479 22,000  Level Atlanta Center
12:27PM 32.4403 -85.7419 323° Northwest 416 479 22,000  Level Atlanta Center
12:28PM 32.5208 -85.8125 324° Northwest 416 479 22,000  Level Atlanta Center
12:29PM 32.6094 -85.8931 323° Northwest 411 473 22,000  Level Atlanta Center
12:30PM 32.6958 -85.9689 324° Northwest 405 466 22,000 -600 Level Atlanta Center
12:31PM 32.7864 -86.0500 323° Northwest 405 466 20,800 -1,740 Descending Atlanta Center
12:32PM 32.8728 -86.1286 323° Northwest 400 460 18,600 -2,280 Descending Atlanta Center
12:33PM 32.9569 -86.2025 324° Northwest 395 455 16,300 -2,460 Descending Atlanta Center
12:33PM 33.0103 -86.2583 319° Northwest 375 432 14,800 -2,220 Descending Atlanta Center
12:34PM 33.0392 -86.2764 332° Northwest 383 441 14,100 -2,160 Descending Atlanta Center
12:35PM 33.1211 -86.3578 320° Northwest 365 420 11,800 -1,620 Descending Atlanta Center
12:36PM 33.2014 -86.4269 324° Northwest 356 410 11,000 -1,200 Descending Atlanta Center
12:37PM 33.2497 -86.5053 306° West 305 351 9,500 -1,860 Descending Atlanta Center
12:38PM 33.3047 -86.5839 310° West 295 339 7,300 -2,040 Descending Atlanta Center
12:39PM 33.3464 -86.6772 298° West 267 307 5,000 -2,040 Descending Atlanta Center
12:40PM 33.3764 -86.7353 302° West 270 311 3,300 -1,260 Descending Atlanta Center
12:41PM 33.4328 -86.7444 352° North 196 226 2,700 -540 Descending Atlanta Center
12:42PM 33.4739 -86.7633 339° North 190 219 2,300 -600 Descending Atlanta Center
12:43PM 33.5139 -86.7494 16° North 125 144 1,500 -780 Descending Atlanta Center
12:45PM 33.5500 -86.7500 309° West  Level FlightAware Approximate
12:52PM 33.5639 -86.7523 309° West  Level Estimated